Airfield :
LOGIN :

Register | Disclaimer

   EN    FR    IT 

 










Legend :    VFR   Marginal VFR   IFR   Intensive IFR   Very Intensive IFR
Visi :
Ceiling :
>= 8 km
>= 3000ft
5 to 8 km
1000 to 3000 ft
1500m to 5 km
500 to 1000 ft
800 to 1500m
200 to 500 ft
< 800m
< 200 ft
Symbols :   Thunderstorms  Fog  Heavy snow  Heavy precipitations  Wind > 20 kt
SIGMETs :     Misc.  Thunderstorms  Icing  Turbulence  Mountain Waves  Volcanic Ashes







- Airport Elevation : 20 ft


EBFN - Koksijde

CURRENT METAR :
  • 172225Z AUTO 23009KT 2100 -RA OVC002/// 06/06 Q1018 AMB

EXPIRED METARs :
  • 172211Z AUTO 22010KT 1600 DZ OVC002/// 06/06 Q1018 AMB
  • 172155Z AUTO 22011KT 1800 -DZ OVC003/// 06/06 Q1019 YLO
  • 172146Z AUTO 22011KT 1500 DZ OVC003/// 06/06 Q1018 AMB
  • 172125Z AUTO 22011KT 1700 DZ OVC004/// 05/05 Q1019 YLO
  • 172113Z AUTO 22010KT 2000 -RA OVC004/// 05/05 Q1019 YLO
  • 172055Z AUTO 21014KT 1500 -RA OVC005/// 05/05 Q1019 AMB
  • 172025Z AUTO 21014KT 3300 -RA OVC006/// 05/05 Q1019 YLO
  • 172006Z AUTO 20016KT 3200 -DZ OVC008/// 05/05 Q1020 YLO
  • 171955Z AUTO 20015KT 4900 OVC008/// 05/05 Q1020 GRN

TAF TAF EBFN
Valid from the 17 at 19:00 until the 18 at 07:00 UTC


171541Z 1719/1807 21010KT 8000 -RA FEW012 BKN018
BECMG 1719/1721 5000 -RA FEW007 BKN012
TEMPO 1720/1800 3000 RADZ FEW004 SCT006 BKN010
BECMG 1800/1802 34017KT 9999 FEW015
TEMPO 1800/1807 SCT014
No reported NOTAMs for that airfield.



MET'MAP, your aeronautical weather chart ! - Copyright ORBIFLY December 2007 - Disclaimer

ORBIFLY MET'MAP TEAM :

Programming & Development : Alexandra Zaïnal
Concept & Development : Baudouin d'Aumeries
Co-Development & Prog : Marc-Olivier Méhu
Technical & hardware support : Manuel Goepfert

Contact : metmap@orbifly.com




SOURCES & CREDITS :

   NOAA